Time;durP1;ratioP1;P1;durP2;ratioP2;P2;SDS_P1;SDS_P2;PMS_P1;PMS_P2;Temp;Humidity;BMP_temperature;BMP_pressure;BME280_temperature;BME280_humidity;BME280_pressure;Samples;Min_cycle;Max_cycle;Signal;HPM_P1;HPM_P2
2021/12/15 00:00:20;;;;;;;9.50;2.28;;;;;;;;;;5038998;28;20037;-59
2021/12/15 00:02:46;;;;;;;2.42;1.58;;;;;;;;;;5035503;28;20090;-59
2021/12/15 00:05:20;;;;;;;5.97;1.73;;;;;;;;;;5033821;28;20029;-57
2021/12/15 00:07:47;;;;;;;4.53;2.50;;;;;;;;;;5027026;28;20029;-57
2021/12/15 00:10:12;;;;;;;4.90;2.03;;;;;;;;;;5031692;28;20036;-56
2021/12/15 00:12:38;;;;;;;7.53;2.85;;;;;;;;;;5033851;28;20033;-58
2021/12/15 00:15:04;;;;;;;3.97;2.42;;;;;;;;;;5032553;28;20037;-57
2021/12/15 00:17:30;;;;;;;4.80;1.90;;;;;;;;;;5037197;28;20024;-58
2021/12/15 00:19:56;;;;;;;4.75;2.35;;;;;;;;;;5031965;28;20389;-59
2021/12/15 00:22:22;;;;;;;2.60;1.38;;;;;;;;;;5036033;28;20060;-59
2021/12/15 00:24:47;;;;;;;3.95;1.95;;;;;;;;;;5035628;28;20480;-59
2021/12/15 00:27:13;;;;;;;4.05;2.20;;;;;;;;;;5033609;28;20256;-59
2021/12/15 00:29:39;;;;;;;2.20;1.65;;;;;;;;;;5033986;28;20056;-59
2021/12/15 00:32:06;;;;;;;3.65;1.90;;;;;;;;;;5033759;28;20571;-58
2021/12/15 00:34:35;;;;;;;2.67;1.33;;;;;;;;;;5037820;28;20029;-58
2021/12/15 00:37:01;;;;;;;3.05;1.88;;;;;;;;;;5030444;28;20079;-58
2021/12/15 00:39:28;;;;;;;3.83;1.77;;;;;;;;;;5031703;28;20045;-58
2021/12/15 00:41:54;;;;;;;3.75;1.52;;;;;;;;;;5032320;28;20052;-58
2021/12/15 00:44:19;;;;;;;4.75;1.60;;;;;;;;;;5032545;28;20045;-58
2021/12/15 00:46:45;;;;;;;1.90;1.10;;;;;;;;;;5029689;28;20412;-58
2021/12/15 00:49:11;;;;;;;2.83;1.15;;;;;;;;;;5026074;28;20316;-58
2021/12/15 00:51:39;;;;;;;3.40;1.27;;;;;;;;;;5039992;28;20098;-59
2021/12/15 00:54:05;;;;;;;1.70;1.02;;;;;;;;;;5032607;28;20029;-58
2021/12/15 00:56:32;;;;;;;5.05;1.30;;;;;;;;;;5030379;28;20048;-58
2021/12/15 00:58:58;;;;;;;2.13;1.13;;;;;;;;;;5035247;28;20041;-58
2021/12/15 01:01:23;;;;;;;1.75;1.20;;;;;;;;;;5030511;28;20487;-59
2021/12/15 01:03:49;;;;;;;2.53;1.40;;;;;;;;;;5032424;28;20029;-59
2021/12/15 01:06:18;;;;;;;1.75;1.15;;;;;;;;;;5021743;28;20125;-58
2021/12/15 01:08:51;;;;;;;2.75;1.52;;;;;;;;;;5032112;28;20514;-58
2021/12/15 01:11:32;;;;;;;4.05;1.50;;;;;;;;;;5029430;28;20679;-58
2021/12/15 01:19:58;;;;;;;4.72;1.60;;;;;;;;;;5034884;28;20044;-59
2021/12/15 01:22:33;;;;;;;4.28;1.52;;;;;;;;;;5032581;28;20086;-59
2021/12/15 01:25:12;;;;;;;1.27;0.70;;;;;;;;;;5030583;28;20035;-58
2021/12/15 01:27:38;;;;;;;3.92;1.55;;;;;;;;;;5033815;28;20044;-58
2021/12/15 01:30:09;;;;;;;5.65;1.10;;;;;;;;;;5032416;28;20055;-58
2021/12/15 01:32:35;;;;;;;4.43;1.27;;;;;;;;;;5036655;28;20054;-58
2021/12/15 01:35:00;;;;;;;3.65;1.58;;;;;;;;;;5031924;28;20553;-59
2021/12/15 01:37:26;;;;;;;8.10;1.50;;;;;;;;;;5030465;28;20339;-57
2021/12/15 01:39:54;;;;;;;5.25;1.38;;;;;;;;;;5035945;28;20083;-57
2021/12/15 01:42:24;;;;;;;6.03;1.00;;;;;;;;;;5032708;28;20039;-58
2021/12/15 01:47:34;;;;;;;6.78;0.90;;;;;;;;;;5037666;28;20453;-57
2021/12/15 01:49:59;;;;;;;14.55;1.15;;;;;;;;;;5033872;28;20045;-59
2021/12/15 01:52:35;;;;;;;5.75;1.08;;;;;;;;;;5038615;28;20029;-58
2021/12/15 01:55:06;;;;;;;5.38;0.90;;;;;;;;;;5032158;28;20029;-58
2021/12/15 01:57:34;;;;;;;4.70;1.40;;;;;;;;;;5034989;28;20038;-58
2021/12/15 02:00:01;;;;;;;7.50;0.63;;;;;;;;;;5037298;28;20120;-58
2021/12/15 02:02:27;;;;;;;3.42;0.60;;;;;;;;;;5033678;28;20029;-58
2021/12/15 02:04:53;;;;;;;2.63;0.50;;;;;;;;;;5038553;28;20074;-58
2021/12/15 02:07:21;;;;;;;3.67;0.50;;;;;;;;;;5037386;28;20028;-58
2021/12/15 02:10:01;;;;;;;7.70;0.90;;;;;;;;;;5031298;28;20037;-58
2021/12/15 02:12:32;;;;;;;6.55;0.90;;;;;;;;;;5036381;28;20029;-58
2021/12/15 02:15:00;;;;;;;6.78;0.82;;;;;;;;;;5036160;28;20037;-58
2021/12/15 02:17:27;;;;;;;15.07;1.65;;;;;;;;;;5032125;28;20040;-58
2021/12/15 02:19:52;;;;;;;10.02;1.05;;;;;;;;;;5038738;28;20041;-58
2021/12/15 02:22:18;;;;;;;8.40;1.20;;;;;;;;;;5035044;28;20036;-58
2021/12/15 02:24:48;;;;;;;4.05;0.70;;;;;;;;;;5040180;28;20039;-58
2021/12/15 02:27:14;;;;;;;1.88;0.52;;;;;;;;;;5033951;28;20304;-58
2021/12/15 02:29:43;;;;;;;5.93;1.05;;;;;;;;;;5037312;28;20037;-59
2021/12/15 02:37:26;;;;;;;6.03;0.68;;;;;;;;;;5036576;28;20463;-58
2021/12/15 02:40:03;;;;;;;9.27;1.02;;;;;;;;;;5033047;28;20037;-59
2021/12/15 02:42:36;;;;;;;13.90;0.98;;;;;;;;;;5035811;28;20052;-59
2021/12/15 02:45:05;;;;;;;5.07;0.50;;;;;;;;;;5035127;28;20033;-59
2021/12/15 02:47:31;;;;;;;13.27;0.75;;;;;;;;;;5034283;28;20110;-60
2021/12/15 02:49:59;;;;;;;5.32;0.75;;;;;;;;;;5038495;28;20037;-58
2021/12/15 02:52:26;;;;;;;15.35;1.05;;;;;;;;;;5035924;28;20415;-59
2021/12/15 02:54:52;;;;;;;5.68;0.85;;;;;;;;;;5031656;28;20025;-59
2021/12/15 02:57:18;;;;;;;5.30;0.52;;;;;;;;;;5028988;28;20528;-60
2021/12/15 03:05:13;;;;;;;8.95;0.77;;;;;;;;;;5033463;28;20051;-59
2021/12/15 03:07:58;;;;;;;6.70;0.90;;;;;;;;;;5031558;28;20544;-59
2021/12/15 03:15:53;;;;;;;10.77;0.70;;;;;;;;;;5031365;28;20040;-59
2021/12/15 03:18:25;;;;;;;4.30;0.43;;;;;;;;;;5034750;28;20030;-60
2021/12/15 03:20:58;;;;;;;4.40;0.95;;;;;;;;;;5035191;28;20025;-59
2021/12/15 03:23:48;;;;;;;8.38;0.82;;;;;;;;;;5032962;28;20029;-59
2021/12/15 03:26:25;;;;;;;5.85;0.60;;;;;;;;;;5033518;28;20219;-59
2021/12/15 03:39:32;;;;;;;3.58;0.63;;;;;;;;;;5032219;28;20122;-59
2021/12/15 03:42:03;;;;;;;5.97;0.73;;;;;;;;;;5050239;28;20068;-58
2021/12/15 03:44:31;;;;;;;5.65;0.77;;;;;;;;;;5030288;28;20163;-59
2021/12/15 03:46:58;;;;;;;8.63;0.60;;;;;;;;;;5032218;28;20085;-59
2021/12/15 03:49:25;;;;;;;13.35;1.42;;;;;;;;;;5035431;28;20680;-59
2021/12/15 03:51:50;;;;;;;2.45;0.45;;;;;;;;;;5034757;28;20072;-60
2021/12/15 03:54:17;;;;;;;7.38;1.13;;;;;;;;;;5033688;28;20186;-59
2021/12/15 03:56:44;;;;;;;12.98;0.60;;;;;;;;;;5035392;28;20049;-59
2021/12/15 03:59:11;;;;;;;10.88;1.13;;;;;;;;;;5035034;28;20040;-59
2021/12/15 04:01:37;;;;;;;6.47;0.65;;;;;;;;;;5035648;28;20131;-59
2021/12/15 04:04:03;;;;;;;2.72;0.35;;;;;;;;;;5030927;28;20052;-59
2021/12/15 04:06:33;;;;;;;10.40;1.17;;;;;;;;;;5035841;28;20086;-59
2021/12/15 04:08:59;;;;;;;6.72;0.60;;;;;;;;;;5030590;28;20029;-59
2021/12/15 04:11:27;;;;;;;10.25;0.60;;;;;;;;;;5033978;28;20021;-59
2021/12/15 04:13:59;;;;;;;6.00;0.70;;;;;;;;;;5034724;28;20555;-59
2021/12/15 04:18:53;;;;;;;7.10;0.70;;;;;;;;;;5029806;28;20320;-59
2021/12/15 04:21:19;;;;;;;7.35;0.40;;;;;;;;;;5030129;28;20037;-59
2021/12/15 04:23:56;;;;;;;13.68;0.90;;;;;;;;;;5036278;28;20025;-59
2021/12/15 04:26:22;;;;;;;8.30;1.13;;;;;;;;;;5028135;28;20039;-58
2021/12/15 04:28:48;;;;;;;9.18;0.88;;;;;;;;;;5030334;28;20039;-59
2021/12/15 04:31:21;;;;;;;10.85;0.60;;;;;;;;;;5030679;28;20037;-59
2021/12/15 04:33:55;;;;;;;8.15;1.08;;;;;;;;;;5034199;28;20496;-59
2021/12/15 04:36:24;;;;;;;8.95;1.00;;;;;;;;;;5029671;28;20033;-59
2021/12/15 04:38:50;;;;;;;2.72;0.73;;;;;;;;;;5034129;28;20029;-59
2021/12/15 04:41:19;;;;;;;7.55;0.52;;;;;;;;;;5029029;28;20331;-59
2021/12/15 04:43:55;;;;;;;7.13;0.73;;;;;;;;;;5030326;28;20503;-59
2021/12/15 04:46:21;;;;;;;4.85;0.55;;;;;;;;;;5036052;28;20397;-59
2021/12/15 04:48:46;;;;;;;1.85;0.32;;;;;;;;;;5037738;28;20028;-59
2021/12/15 04:51:12;;;;;;;6.95;0.85;;;;;;;;;;5029576;28;20472;-59
2021/12/15 04:53:37;;;;;;;3.70;0.30;;;;;;;;;;5029388;28;20511;-59
2021/12/15 04:56:05;;;;;;;3.08;0.45;;;;;;;;;;5029011;28;20709;-59
2021/12/15 04:58:31;;;;;;;7.30;0.55;;;;;;;;;;5034123;28;20045;-59
2021/12/15 05:01:01;;;;;;;2.38;0.60;;;;;;;;;;5033172;28;20043;-59
2021/12/15 05:03:27;;;;;;;2.90;0.40;;;;;;;;;;5031390;28;20463;-59
2021/12/15 05:05:52;;;;;;;6.47;0.75;;;;;;;;;;5033972;28;20032;-60
2021/12/15 05:08:19;;;;;;;3.63;0.38;;;;;;;;;;5033688;28;20028;-60
2021/12/15 05:10:45;;;;;;;9.13;1.13;;;;;;;;;;5033384;28;20444;-58
2021/12/15 05:13:10;;;;;;;5.47;0.68;;;;;;;;;;5032677;28;20175;-58
2021/12/15 05:15:37;;;;;;;6.20;0.38;;;;;;;;;;5031405;28;20028;-58
2021/12/15 05:18:05;;;;;;;10.48;1.00;;;;;;;;;;5034189;28;20029;-58
2021/12/15 05:20:34;;;;;;;6.93;0.52;;;;;;;;;;5038430;28;20041;-59
2021/12/15 05:23:02;;;;;;;8.95;0.85;;;;;;;;;;5036236;28;20082;-59
2021/12/15 05:25:28;;;;;;;5.50;0.50;;;;;;;;;;5032276;28;20041;-58
2021/12/15 05:27:53;;;;;;;5.10;1.20;;;;;;;;;;5033468;28;20032;-59
2021/12/15 05:30:19;;;;;;;16.08;0.70;;;;;;;;;;5030710;28;20079;-59
2021/12/15 05:32:45;;;;;;;15.05;0.95;;;;;;;;;;5035839;28;20029;-60
2021/12/15 05:35:16;;;;;;;9.18;0.88;;;;;;;;;;5031179;28;20400;-60
2021/12/15 05:37:42;;;;;;;14.40;0.70;;;;;;;;;;5030275;28;20032;-60
2021/12/15 05:40:08;;;;;;;5.70;0.60;;;;;;;;;;5030591;28;20037;-59
2021/12/15 05:42:34;;;;;;;13.40;0.70;;;;;;;;;;5036929;28;20451;-60
2021/12/15 05:45:00;;;;;;;3.88;0.55;;;;;;;;;;5034000;28;20057;-58
2021/12/15 05:47:26;;;;;;;7.95;1.05;;;;;;;;;;5032474;28;20056;-59
2021/12/15 05:49:53;;;;;;;19.23;1.63;;;;;;;;;;5032642;28;20039;-59
2021/12/15 05:52:19;;;;;;;10.57;0.90;;;;;;;;;;5031170;28;20033;-58
2021/12/15 05:54:46;;;;;;;10.13;1.45;;;;;;;;;;5033163;28;20086;-58
2021/12/15 05:57:12;;;;;;;7.45;1.10;;;;;;;;;;5037888;28;20500;-58
2021/12/15 05:59:38;;;;;;;5.18;0.22;;;;;;;;;;5031824;28;20519;-58
2021/12/15 06:02:05;;;;;;;14.32;0.60;;;;;;;;;;5032664;28;20052;-58
2021/12/15 06:04:31;;;;;;;14.15;2.38;;;;;;;;;;5034462;28;20104;-57
2021/12/15 06:06:57;;;;;;;11.05;0.68;;;;;;;;;;5032150;28;20036;-58
2021/12/15 06:09:22;;;;;;;8.30;0.50;;;;;;;;;;5029322;28;20057;-59
2021/12/15 06:11:51;;;;;;;4.93;0.82;;;;;;;;;;5030996;28;20060;-59
2021/12/15 06:14:23;;;;;;;10.48;0.73;;;;;;;;;;5029722;28;20103;-60
2021/12/15 06:16:53;;;;;;;8.75;0.73;;;;;;;;;;5033619;28;20041;-58
2021/12/15 06:19:19;;;;;;;14.85;0.88;;;;;;;;;;5034183;28;20034;-59
2021/12/15 06:21:45;;;;;;;17.02;0.60;;;;;;;;;;5025028;28;20520;-59
2021/12/15 06:24:10;;;;;;;9.13;0.60;;;;;;;;;;5030080;28;20036;-59
2021/12/15 06:26:36;;;;;;;6.07;0.93;;;;;;;;;;5033823;28;20021;-59
2021/12/15 06:29:02;;;;;;;10.75;0.63;;;;;;;;;;5030899;28;20079;-59
2021/12/15 06:31:29;;;;;;;7.65;0.57;;;;;;;;;;5034429;28;20168;-59
2021/12/15 06:33:54;;;;;;;7.47;0.73;;;;;;;;;;5039210;28;20036;-59
2021/12/15 06:36:21;;;;;;;9.48;0.40;;;;;;;;;;5040584;28;20429;-59
2021/12/15 06:38:50;;;;;;;8.68;0.98;;;;;;;;;;5034884;28;20025;-59
2021/12/15 06:41:16;;;;;;;14.80;1.13;;;;;;;;;;5031962;28;20124;-59
2021/12/15 06:43:46;;;;;;;9.02;1.40;;;;;;;;;;5033976;28;20094;-59
2021/12/15 06:59:45;;;;;;;3.90;0.43;;;;;;;;;;5033696;28;20295;-60
2021/12/15 07:02:11;;;;;;;13.43;0.65;;;;;;;;;;5029373;28;20256;-62
2021/12/15 07:04:36;;;;;;;1.60;0.22;;;;;;;;;;5031180;28;20036;-60
2021/12/15 07:07:04;;;;;;;8.30;0.50;;;;;;;;;;5027851;28;20056;-59
2021/12/15 07:09:30;;;;;;;21.88;1.20;;;;;;;;;;5031690;28;20622;-60
2021/12/15 07:11:56;;;;;;;5.43;0.40;;;;;;;;;;5028046;28;20424;-60
2021/12/15 07:14:22;;;;;;;11.00;0.77;;;;;;;;;;5030892;28;20104;-59
2021/12/15 07:16:51;;;;;;;15.40;0.47;;;;;;;;;;5028717;28;20551;-60
2021/12/15 07:21:53;;;;;;;6.45;0.88;;;;;;;;;;5017246;28;20120;-60
2021/12/15 07:24:20;;;;;;;4.20;0.35;;;;;;;;;;5030854;28;20035;-59
2021/12/15 07:26:46;;;;;;;8.85;0.45;;;;;;;;;;5034826;28;20489;-59
2021/12/15 07:29:11;;;;;;;9.98;0.40;;;;;;;;;;5036943;28;20032;-59
2021/12/15 07:31:37;;;;;;;10.35;0.47;;;;;;;;;;5039971;28;20029;-59
2021/12/15 07:34:03;;;;;;;14.18;0.95;;;;;;;;;;5033374;28;20033;-58
2021/12/15 07:36:29;;;;;;;9.27;0.45;;;;;;;;;;5030753;28;20029;-59
2021/12/15 07:38:56;;;;;;;5.07;0.47;;;;;;;;;;5024300;28;20090;-59
2021/12/15 07:41:30;;;;;;;12.70;1.55;;;;;;;;;;5030766;28;20590;-60
2021/12/15 07:43:59;;;;;;;8.25;1.23;;;;;;;;;;5032864;28;20072;-59
2021/12/15 07:46:26;;;;;;;12.68;1.15;;;;;;;;;;5029995;28;20033;-60
2021/12/15 07:48:51;;;;;;;8.23;0.60;;;;;;;;;;5026946;28;20423;-59
2021/12/15 07:51:17;;;;;;;9.23;2.85;;;;;;;;;;5038010;28;20029;-60
2021/12/15 07:53:43;;;;;;;9.57;0.50;;;;;;;;;;5029979;28;20030;-58
2021/12/15 07:56:11;;;;;;;7.07;1.45;;;;;;;;;;5035403;28;20034;-59
2021/12/15 07:58:37;;;;;;;11.40;1.27;;;;;;;;;;5020943;28;20503;-60
2021/12/15 08:01:05;;;;;;;7.50;0.88;;;;;;;;;;5030105;28;20037;-60
2021/12/15 08:03:32;;;;;;;3.25;0.17;;;;;;;;;;5028574;28;20036;-59
2021/12/15 08:05:59;;;;;;;1.65;0.40;;;;;;;;;;5033521;28;20048;-59
2021/12/15 08:08:25;;;;;;;4.70;1.40;;;;;;;;;;5023512;28;20029;-59
2021/12/15 08:10:56;;;;;;;3.85;0.30;;;;;;;;;;5033520;28;20298;-59
2021/12/15 08:13:24;;;;;;;9.52;0.88;;;;;;;;;;5027547;28;20082;-59
2021/12/15 08:15:50;;;;;;;9.88;0.32;;;;;;;;;;5029360;28;20053;-59
2021/12/15 08:18:16;;;;;;;22.88;0.55;;;;;;;;;;5033652;28;20174;-59
2021/12/15 08:20:41;;;;;;;4.80;0.55;;;;;;;;;;5040629;28;20288;-59
2021/12/15 08:23:07;;;;;;;3.40;0.35;;;;;;;;;;5029971;28;20033;-60
2021/12/15 08:25:35;;;;;;;7.22;0.40;;;;;;;;;;5024632;28;20045;-60
2021/12/15 08:28:01;;;;;;;2.17;0.50;;;;;;;;;;5025844;28;20021;-59
2021/12/15 08:30:29;;;;;;;7.65;0.70;;;;;;;;;;5029920;28;20532;-59
2021/12/15 08:32:58;;;;;;;7.22;0.38;;;;;;;;;;5025814;28;20074;-59
2021/12/15 08:35:28;;;;;;;2.45;0.43;;;;;;;;;;5028585;28;20279;-58
2021/12/15 08:37:54;;;;;;;7.93;0.80;;;;;;;;;;5025735;28;22099;-56
2021/12/15 08:40:22;;;;;;;4.10;0.82;;;;;;;;;;5029238;28;20029;-58
2021/12/15 08:42:47;;;;;;;13.60;0.77;;;;;;;;;;5027361;28;20037;-59
2021/12/15 08:45:14;;;;;;;8.25;0.45;;;;;;;;;;5024531;28;20037;-59
2021/12/15 08:47:40;;;;;;;7.32;0.95;;;;;;;;;;5024306;28;20522;-59
2021/12/15 08:50:09;;;;;;;7.97;0.63;;;;;;;;;;5021461;28;20037;-58
2021/12/15 08:52:35;;;;;;;13.82;0.85;;;;;;;;;;5026897;28;20112;-58
2021/12/15 08:55:01;;;;;;;6.15;0.52;;;;;;;;;;5026568;28;20569;-58
2021/12/15 08:57:26;;;;;;;7.93;0.50;;;;;;;;;;5023261;28;20045;-59
2021/12/15 08:59:52;;;;;;;3.45;0.28;;;;;;;;;;5030339;28;20026;-58
2021/12/15 09:02:18;;;;;;;10.57;1.42;;;;;;;;;;5026584;28;20636;-58
2021/12/15 09:04:43;;;;;;;2.53;0.32;;;;;;;;;;5024416;28;20475;-58
2021/12/15 09:07:09;;;;;;;13.48;0.43;;;;;;;;;;5023808;28;20041;-58
2021/12/15 09:09:35;;;;;;;2.60;0.25;;;;;;;;;;5033293;28;20037;-57
2021/12/15 09:12:02;;;;;;;6.28;0.55;;;;;;;;;;5023975;28;20036;-57
2021/12/15 09:14:28;;;;;;;5.00;0.50;;;;;;;;;;5020650;28;20496;-58
2021/12/15 09:16:57;;;;;;;7.18;1.17;;;;;;;;;;5028537;28;20033;-57
2021/12/15 09:19:23;;;;;;;7.22;0.75;;;;;;;;;;5030201;28;20064;-60
2021/12/15 09:21:51;;;;;;;11.07;0.85;;;;;;;;;;5026556;28;20468;-60
2021/12/15 09:24:17;;;;;;;10.38;0.60;;;;;;;;;;5034290;28;20033;-59
2021/12/15 09:26:43;;;;;;;9.00;0.60;;;;;;;;;;5031333;28;20033;-61
2021/12/15 09:29:08;;;;;;;14.10;1.25;;;;;;;;;;5031250;28;20033;-60
2021/12/15 09:31:34;;;;;;;8.10;0.50;;;;;;;;;;5025100;28;20037;-59
2021/12/15 09:34:06;;;;;;;7.00;0.85;;;;;;;;;;5030899;28;20071;-62
2021/12/15 09:36:31;;;;;;;12.00;1.17;;;;;;;;;;5027418;28;20293;-60
2021/12/15 09:39:05;;;;;;;4.55;0.85;;;;;;;;;;5026165;28;20506;-61
2021/12/15 09:41:31;;;;;;;2.58;0.43;;;;;;;;;;5037342;28;20033;-61
2021/12/15 09:43:59;;;;;;;16.33;0.70;;;;;;;;;;5037722;28;20395;-60
2021/12/15 10:02:36;;;;;;;10.70;0.77;;;;;;;;;;5023299;28;20064;-60
2021/12/15 10:20:54;;;;;;;;;;;;;;;;;;5033188;28;20043;-60
2021/12/15 10:23:24;;;;;;;8.27;0.70;;;;;;;;;;5033350;28;19932;-61
2021/12/15 10:25:54;;;;;;;11.93;1.67;;;;;;;;;;5032992;28;20496;-59
2021/12/15 10:28:25;;;;;;;10.75;1.17;;;;;;;;;;5031924;28;20033;-58
2021/12/15 10:30:59;;;;;;;3.60;1.00;;;;;;;;;;5028066;28;20213;-62
2021/12/15 10:33:29;;;;;;;5.45;1.20;;;;;;;;;;5033820;28;20041;-62
2021/12/15 10:36:02;;;;;;;12.38;1.38;;;;;;;;;;5030031;28;20044;-61
2021/12/15 10:38:40;;;;;;;4.38;0.90;;;;;;;;;;5029272;28;20060;-59
2021/12/15 10:41:13;;;;;;;5.18;0.68;;;;;;;;;;5016984;28;20037;-64
2021/12/15 10:43:53;;;;;;;8.23;1.10;;;;;;;;;;5029488;28;20412;-61
2021/12/15 10:46:25;;;;;;;7.05;1.17;;;;;;;;;;5038294;28;20455;-61
2021/12/15 10:49:03;;;;;;;;;;;;;;;;;;5029120;28;20025;-61
2021/12/15 10:51:37;;;;;;;5.00;0.80;;;;;;;;;;5028002;28;19923;-62
2021/12/15 10:54:15;;;;;;;8.10;1.00;;;;;;;;;;5031125;28;20036;-61
2021/12/15 10:56:53;;;;;;;3.08;0.68;;;;;;;;;;5036954;28;20400;-60
2021/12/15 10:59:20;;;;;;;8.00;0.93;;;;;;;;;;5032121;28;20072;-62
2021/12/15 11:02:05;;;;;;;17.15;1.30;;;;;;;;;;5031169;28;20167;-60
2021/12/15 11:04:39;;;;;;;4.47;1.00;;;;;;;;;;5031052;28;20025;-61
2021/12/15 11:07:25;;;;;;;4.10;0.63;;;;;;;;;;5030745;28;20025;-60
2021/12/15 11:10:11;;;;;;;3.80;0.60;;;;;;;;;;5032597;28;20056;-63
2021/12/15 11:12:41;;;;;;;9.77;1.90;;;;;;;;;;5037941;28;20022;-61
2021/12/15 11:15:07;;;;;;;9.38;1.05;;;;;;;;;;5030526;28;20025;-60
2021/12/15 11:17:36;;;;;;;5.78;1.02;;;;;;;;;;5032543;28;20034;-61
2021/12/15 11:20:20;;;;;;;4.20;1.00;;;;;;;;;;5031577;28;20029;-62
2021/12/15 11:22:49;;;;;;;9.57;1.35;;;;;;;;;;5030879;28;20025;-61
2021/12/15 11:25:32;;;;;;;8.80;1.30;;;;;;;;;;5031636;28;20067;-61
2021/12/15 11:28:22;;;;;;;16.95;1.35;;;;;;;;;;5034595;28;20335;-61
2021/12/15 11:31:13;;;;;;;4.57;1.02;;;;;;;;;;5025990;28;20037;-62
2021/12/15 11:34:05;;;;;;;14.93;0.82;;;;;;;;;;5028849;28;20424;-62
2021/12/15 11:36:31;;;;;;;13.98;1.08;;;;;;;;;;5032101;28;20036;-63
2021/12/15 11:39:03;;;;;;;3.50;0.80;;;;;;;;;;5029591;28;20120;-62
2021/12/15 11:41:34;;;;;;;9.85;1.20;;;;;;;;;;5033807;28;20029;-62
2021/12/15 11:44:07;;;;;;;12.07;1.33;;;;;;;;;;5029439;28;20041;-63
2021/12/15 11:46:34;;;;;;;3.28;0.65;;;;;;;;;;5032614;28;20153;-61
2021/12/15 11:49:14;;;;;;;5.15;0.98;;;;;;;;;;5027453;28;20021;-63
2021/12/15 11:51:56;;;;;;;6.25;0.90;;;;;;;;;;5032052;28;20104;-62
2021/12/15 11:54:22;;;;;;;7.00;0.68;;;;;;;;;;5032897;28;20033;-62
2021/12/15 11:57:04;;;;;;;8.32;1.02;;;;;;;;;;5032911;28;20024;-62
2021/12/15 11:59:38;;;;;;;4.93;0.70;;;;;;;;;;5032876;28;20452;-62
2021/12/15 12:02:08;;;;;;;8.48;1.02;;;;;;;;;;5030357;28;20531;-62
2021/12/15 12:04:36;;;;;;;8.95;1.52;;;;;;;;;;5029927;28;20029;-60
2021/12/15 12:07:41;;;;;;;1.27;0.47;;;;;;;;;;5030184;28;20190;-60
2021/12/15 12:10:13;;;;;;;5.00;0.60;;;;;;;;;;5012446;28;20033;-61
2021/12/15 12:12:53;;;;;;;5.18;0.52;;;;;;;;;;5041637;28;20442;-61
2021/12/15 12:15:23;;;;;;;2.13;0.60;;;;;;;;;;5031997;28;20057;-62
2021/12/15 12:17:52;;;;;;;12.10;1.08;;;;;;;;;;5033741;28;20029;-62
2021/12/15 12:20:28;;;;;;;5.68;1.00;;;;;;;;;;5028698;28;20022;-62
2021/12/15 12:22:56;;;;;;;7.05;1.10;;;;;;;;;;5028968;28;20036;-60
2021/12/15 12:25:35;;;;;;;2.35;0.82;;;;;;;;;;5030943;28;20025;-62
2021/12/15 12:28:01;;;;;;;3.88;0.70;;;;;;;;;;5029145;28;20468;-60
2021/12/15 12:30:33;;;;;;;1.73;0.60;;;;;;;;;;5027421;28;20077;-59
2021/12/15 12:33:00;;;;;;;2.88;0.60;;;;;;;;;;5028883;28;20056;-61
2021/12/15 12:35:30;;;;;;;2.45;0.50;;;;;;;;;;5032541;28;20037;-59
2021/12/15 12:37:59;;;;;;;4.00;0.65;;;;;;;;;;5041706;28;20113;-62
2021/12/15 12:40:31;;;;;;;3.22;1.10;;;;;;;;;;5029306;28;20025;-59
2021/12/15 12:42:57;;;;;;;3.28;0.70;;;;;;;;;;5032075;28;20033;-67
2021/12/15 12:45:36;;;;;;;5.25;1.27;;;;;;;;;;5026946;28;20513;-61
2021/12/15 12:59:49;;;;;;;1.98;0.30;;;;;;;;;;5030509;28;20049;-62
2021/12/15 13:02:41;;;;;;;2.58;0.40;;;;;;;;;;5030246;28;20029;-62
2021/12/15 13:05:27;;;;;;;3.53;0.73;;;;;;;;;;5036354;28;20431;-62
2021/12/15 13:07:56;;;;;;;1.35;0.20;;;;;;;;;;5029557;28;20407;-61
2021/12/15 13:11:01;;;;;;;2.90;0.32;;;;;;;;;;5031467;28;20251;-60
2021/12/15 13:13:29;;;;;;;6.63;0.65;;;;;;;;;;5032690;28;20132;-60
2021/12/15 13:16:00;;;;;;;0.50;0.30;;;;;;;;;;5033728;28;20047;-60
2021/12/15 13:18:28;;;;;;;3.95;0.50;;;;;;;;;;5029780;28;20350;-61
2021/12/15 13:20:57;;;;;;;4.95;0.77;;;;;;;;;;5031034;28;20033;-61
2021/12/15 13:23:51;;;;;;;4.03;0.65;;;;;;;;;;5029109;28;20151;-61
2021/12/15 13:29:47;;;;;;;3.03;0.50;;;;;;;;;;5031567;28;20499;-62
2021/12/15 13:32:13;;;;;;;4.03;0.50;;;;;;;;;;5024540;28;20062;-61
2021/12/15 13:34:46;;;;;;;3.53;0.70;;;;;;;;;;5030076;28;20033;-61
2021/12/15 13:37:52;;;;;;;2.20;0.43;;;;;;;;;;5029039;28;20474;-61
2021/12/15 13:40:56;;;;;;;2.83;0.35;;;;;;;;;;5029187;28;20585;-61
2021/12/15 13:43:43;;;;;;;1.30;0.28;;;;;;;;;;5030119;28;20063;-61
2021/12/15 13:46:29;;;;;;;4.25;0.82;;;;;;;;;;5033896;28;20691;-61
2021/12/15 13:48:54;;;;;;;0.85;0.30;;;;;;;;;;5032755;28;20116;-61
2021/12/15 13:51:59;;;;;;;2.45;0.20;;;;;;;;;;5036884;28;20475;-62
2021/12/15 13:54:34;;;;;;;3.85;0.52;;;;;;;;;;5035615;28;20439;-62
2021/12/15 13:57:11;;;;;;;3.35;0.45;;;;;;;;;;5039412;28;20032;-60
2021/12/15 14:00:01;;;;;;;3.65;0.52;;;;;;;;;;5036904;28;20096;-60
2021/12/15 14:02:26;;;;;;;3.33;0.40;;;;;;;;;;5035990;28;20739;-60
2021/12/15 14:05:05;;;;;;;7.07;0.75;;;;;;;;;;5036390;28;20120;-60
2021/12/15 14:07:31;;;;;;;2.80;0.77;;;;;;;;;;5029136;28;20086;-61
2021/12/15 14:09:59;;;;;;;6.00;0.47;;;;;;;;;;5041296;28;20036;-61
2021/12/15 14:12:49;;;;;;;1.73;0.32;;;;;;;;;;5034138;28;20844;-62
2021/12/15 14:15:33;;;;;;;2.65;0.73;;;;;;;;;;5038175;28;20546;-61
2021/12/15 14:18:10;;;;;;;2.47;0.82;;;;;;;;;;5035470;28;20041;-60
2021/12/15 14:20:39;;;;;;;8.02;0.77;;;;;;;;;;5035363;28;20025;-61
2021/12/15 14:23:09;;;;;;;3.38;0.40;;;;;;;;;;5036478;28;20064;-60
2021/12/15 14:25:37;;;;;;;5.40;0.43;;;;;;;;;;5034210;28;20120;-60
2021/12/15 14:28:34;;;;;;;4.30;0.50;;;;;;;;;;5034988;28;20034;-61
2021/12/15 14:31:25;;;;;;;1.60;0.43;;;;;;;;;;5034488;28;20108;-61
2021/12/15 14:34:00;;;;;;;4.07;0.50;;;;;;;;;;5034014;28;20029;-61
2021/12/15 14:36:29;;;;;;;4.60;0.57;;;;;;;;;;5038198;28;20161;-61
2021/12/15 14:38:56;;;;;;;2.58;0.70;;;;;;;;;;5034952;28;20051;-61
2021/12/15 14:41:28;;;;;;;2.85;0.43;;;;;;;;;;5033437;28;20028;-61
2021/12/15 14:44:05;;;;;;;0.88;0.50;;;;;;;;;;5037906;28;20461;-62
2021/12/15 14:46:56;;;;;;;6.90;0.90;;;;;;;;;;5041448;28;20039;-61
2021/12/15 14:49:39;;;;;;;4.05;0.60;;;;;;;;;;5037272;28;20620;-61
2021/12/15 14:52:26;;;;;;;4.80;0.63;;;;;;;;;;5035792;28;20032;-63
2021/12/15 14:54:58;;;;;;;2.75;0.63;;;;;;;;;;5036769;28;20395;-61
2021/12/15 14:57:27;;;;;;;5.00;0.95;;;;;;;;;;5029735;28;20028;-61
2021/12/15 15:00:24;;;;;;;2.22;0.57;;;;;;;;;;5041891;28;20098;-61
2021/12/15 15:02:55;;;;;;;1.75;0.60;;;;;;;;;;5032487;28;20049;-61
2021/12/15 15:05:28;;;;;;;2.13;0.70;;;;;;;;;;5035323;28;20040;-61
2021/12/15 15:07:55;;;;;;;;;;;;;;;;;;5037015;28;20021;-61
2021/12/15 15:10:26;;;;;;;3.90;0.47;;;;;;;;;;5032823;28;19916;-61
2021/12/15 15:12:53;;;;;;;2.13;0.82;;;;;;;;;;5032558;28;20065;-61
2021/12/15 15:15:25;;;;;;;4.53;0.65;;;;;;;;;;5029985;28;20029;-61
2021/12/15 15:20:45;;;;;;;1.63;0.50;;;;;;;;;;5032207;28;20068;-60
2021/12/15 15:23:16;;;;;;;1.50;0.63;;;;;;;;;;5031234;28;20075;-60
2021/12/15 15:25:45;;;;;;;2.35;0.80;;;;;;;;;;5028891;28;20033;-61
2021/12/15 15:28:16;;;;;;;2.30;0.80;;;;;;;;;;5032076;28;20379;-61
2021/12/15 15:30:44;;;;;;;4.28;0.82;;;;;;;;;;5031616;28;20684;-61
2021/12/15 15:33:16;;;;;;;2.80;0.90;;;;;;;;;;5032621;28;20509;-62
2021/12/15 15:35:48;;;;;;;4.68;0.65;;;;;;;;;;5030501;28;20372;-61
2021/12/15 15:38:15;;;;;;;;;;;;;;;;;;5033691;28;20589;-61
2021/12/15 15:40:47;;;;;;;1.30;0.63;;;;;;;;;;5028027;28;19928;-61
2021/12/15 15:43:16;;;;;;;2.17;0.60;;;;;;;;;;5029870;28;20120;-61
2021/12/15 15:45:49;;;;;;;4.05;1.23;;;;;;;;;;5028958;28;20511;-62
2021/12/15 15:48:18;;;;;;;4.32;0.95;;;;;;;;;;5028873;28;20523;-61
2021/12/15 15:50:56;;;;;;;19.38;1.70;;;;;;;;;;5032030;28;20140;-61
2021/12/15 15:53:23;;;;;;;1.95;0.88;;;;;;;;;;5029596;28;20025;-61
2021/12/15 15:55:49;;;;;;;5.25;0.90;;;;;;;;;;5032414;28;20025;-62
2021/12/15 15:58:17;;;;;;;3.55;1.20;;;;;;;;;;5033923;28;20041;-62
2021/12/15 16:00:52;;;;;;;7.40;1.40;;;;;;;;;;5036904;28;20442;-62
2021/12/15 16:03:30;;;;;;;6.38;1.08;;;;;;;;;;5036860;28;20032;-62
2021/12/15 16:05:59;;;;;;;4.25;1.20;;;;;;;;;;5030281;28;20061;-62
2021/12/15 16:08:27;;;;;;;3.45;1.10;;;;;;;;;;5030103;28;20167;-62
2021/12/15 16:10:55;;;;;;;3.90;1.15;;;;;;;;;;5031546;28;20045;-62
2021/12/15 16:13:24;;;;;;;3.78;1.10;;;;;;;;;;5032039;28;20266;-62
2021/12/15 16:15:54;;;;;;;3.13;0.70;;;;;;;;;;5031221;28;20029;-62
2021/12/15 16:18:27;;;;;;;4.65;1.15;;;;;;;;;;5035013;28;20044;-61
2021/12/15 16:23:32;;;;;;;2.13;0.60;;;;;;;;;;5037527;28;20496;-62
2021/12/15 16:26:02;;;;;;;3.70;1.20;;;;;;;;;;5034795;28;20052;-61
2021/12/15 16:28:32;;;;;;;2.42;0.85;;;;;;;;;;5030589;28;20364;-61
2021/12/15 16:31:00;;;;;;;3.38;1.10;;;;;;;;;;5030050;28;20411;-61
2021/12/15 16:33:32;;;;;;;7.55;1.13;;;;;;;;;;5030039;28;20036;-61
2021/12/15 16:35:59;;;;;;;;;;;;;;;;;;5034148;28;20534;-60
2021/12/15 16:38:28;;;;;;;2.67;0.93;;;;;;;;;;5034711;28;19950;-60
2021/12/15 16:40:59;;;;;;;5.35;1.02;;;;;;;;;;5037145;28;20025;-60
2021/12/15 16:43:25;;;;;;;1.67;0.75;;;;;;;;;;5028640;28;20037;-61
2021/12/15 16:45:51;;;;;;;2.30;0.65;;;;;;;;;;5034869;28;20044;-60
2021/12/15 16:48:21;;;;;;;4.80;1.15;;;;;;;;;;5034355;28;20033;-60